Time;durP1;ratioP1;P1;durP2;ratioP2;P2;SDS_P1;SDS_P2;PMS_P1;PMS_P2;Temp;Humidity;BMP_temperature;BMP_pressure;BME280_temperature;BME280_humidity;BME280_pressure;Samples;Min_cycle;Max_cycle;Signal;HPM_P1;HPM_P2
2022/05/28 00:00:14;;;;;;;;;;;;;;;;;;5077349;28;19999;-43
2022/05/28 00:02:40;;;;;;;;;;;;;;;;;;5077672;28;19951;-42
2022/05/28 00:05:08;;;;;;;;;;;;;;;;;;5077202;28;19909;-43
2022/05/28 00:07:33;;;;;;;;;;;;;;;;;;5077255;28;19909;-42
2022/05/28 00:09:59;;;;;;;;;;;;;;;;;;5077076;28;20418;-43
2022/05/28 00:12:24;;;;;;;;;;;;;;;;;;5076890;28;19913;-43
2022/05/28 00:14:52;;;;;;;;;;;;;;;;;;5077042;28;20007;-42
2022/05/28 00:17:17;;;;;;;;;;;;;;;;;;5076894;28;19909;-43
2022/05/28 00:19:45;;;;;;;;;;;;;;;;;;5076895;28;19909;-42
2022/05/28 00:22:13;;;;;;;;;;;;;;;;;;5076775;28;19909;-42
2022/05/28 00:24:38;;;;;;;;;;;;;;;;;;5076431;28;20359;-42
2022/05/28 00:27:03;;;;;;;;;;;;;;;;;;5076513;28;20018;-41
2022/05/28 00:29:28;;;;;;;;;;;;;;;;;;5076411;28;19920;-42
2022/05/28 00:31:54;;;;;;;;;;;;;;;;;;5076561;28;19913;-42
2022/05/28 00:34:22;;;;;;;;;;;;;;;;;;5076710;28;19915;-43
2022/05/28 00:36:47;;;;;;;;;;;;;;;;;;5076656;28;19946;-42
2022/05/28 00:39:15;;;;;;;;;;;;;;;;;;5076699;28;19970;-42
2022/05/28 00:41:40;;;;;;;;;;;;;;;;;;5076495;28;19913;-42
2022/05/28 00:44:06;;;;;;;;;;;;;;;;;;5076689;28;19919;-42
2022/05/28 00:46:34;;;;;;;;;;;;;;;;;;5076491;28;19909;-42
2022/05/28 00:49:00;;;;;;;;;;;;;;;;;;5075759;28;19912;-42
2022/05/28 00:51:27;;;;;;;;;;;;;;;;;;5076178;28;20003;-42
2022/05/28 00:53:56;;;;;;;;;;;;;;;;;;5076141;28;19909;-43
2022/05/28 00:56:22;;;;;;;;;;;;;;;;;;5076435;28;19958;-42
2022/05/28 00:58:47;;;;;;;;;;;;;;;;;;5076073;28;19909;-43
2022/05/28 01:01:13;;;;;;;;;;;;;;;;;;5076124;28;19916;-42
2022/05/28 01:03:38;;;;;;;;;;;;;;;;;;5075898;28;19913;-42
2022/05/28 01:06:08;;;;;;;;;;;;;;;;;;5076313;28;19904;-42
2022/05/28 01:08:38;;;;;;;;;;;;;;;;;;5075772;28;19963;-42
2022/05/28 01:11:06;;;;;;;;;;;;;;;;;;5074491;28;19912;-42
2022/05/28 01:13:31;;;;;;;;;;;;;;;;;;5075305;28;20026;-43
2022/05/28 01:15:56;;;;;;;;;;;;;;;;;;5075807;28;19922;-43
2022/05/28 01:18:24;;;;;;;;;;;;;;;;;;5075768;28;19912;-42
2022/05/28 01:20:50;;;;;;;;;;;;;;;;;;5075655;28;19913;-42
2022/05/28 01:23:15;;;;;;;;;;;;;;;;;;5075564;28;19962;-42
2022/05/28 01:25:40;;;;;;;;;;;;;;;;;;5075189;28;20259;-43
2022/05/28 01:28:06;;;;;;;;;;;;;;;;;;5087383;22;19959;-42
2022/05/28 01:30:31;;;;;;;;;;;;;;;;;;5095805;28;19953;-42
2022/05/28 01:32:56;;;;;;;;;;;;;;;;;;5095593;28;19912;-43
2022/05/28 01:35:24;;;;;;;;;;;;;;;;;;5095687;28;19908;-43
2022/05/28 01:37:52;;;;;;;;;;;;;;;;;;5095775;28;19915;-43
2022/05/28 01:40:17;;;;;;;;;;;;;;;;;;5095697;28;19908;-43
2022/05/28 01:42:42;;;;;;;;;;;;;;;;;;5095550;28;19908;-42
2022/05/28 01:45:08;;;;;;;;;;;;;;;;;;5095784;28;19915;-42
2022/05/28 01:47:36;;;;;;;;;;;;;;;;;;5095945;28;19961;-42
2022/05/28 01:50:01;;;;;;;;;;;;;;;;;;5095602;28;19912;-42
2022/05/28 01:52:26;;;;;;;;;;;;;;;;;;5095838;28;19966;-42
2022/05/28 01:54:54;;;;;;;;;;;;;;;;;;5095575;28;20278;-43
2022/05/28 01:57:19;;;;;;;;;;;;;;;;;;5095650;28;19948;-42
2022/05/28 01:59:47;;;;;;;;;;;;;;;;;;5095190;28;19915;-43
2022/05/28 02:02:12;;;;;;;;;;;;;;;;;;5095042;28;19908;-42
2022/05/28 02:04:38;;;;;;;;;;;;;;;;;;5095553;28;19915;-42
2022/05/28 02:07:03;;;;;;;;;;;;;;;;;;5095160;28;19904;-42
2022/05/28 02:09:30;;;;;;;;;;;;;;;;;;5095008;28;20028;-42
2022/05/28 02:11:55;;;;;;;;;;;;;;;;;;5095145;28;19965;-42
2022/05/28 02:14:23;;;;;;;;;;;;;;;;;;5095688;28;19909;-42
2022/05/28 02:16:50;;;;;;;;;;;;;;;;;;5095364;28;19915;-43
2022/05/28 02:19:17;;;;;;;;;;;;;;;;;;5095497;28;20367;-42
2022/05/28 02:21:45;;;;;;;;;;;;;;;;;;5095401;28;19962;-43
2022/05/28 02:24:10;;;;;;;;;;;;;;;;;;5095508;28;19912;-42
2022/05/28 02:26:35;;;;;;;;;;;;;;;;;;5095729;28;19908;-43
2022/05/28 02:29:04;;;;;;;;;;;;;;;;;;5095124;28;20447;-43
2022/05/28 02:31:29;;;;;;;;;;;;;;;;;;5095464;28;19979;-42
2022/05/28 02:33:54;;;;;;;;;;;;;;;;;;5095602;28;19954;-42
2022/05/28 02:36:20;;;;;;;;;;;;;;;;;;5095404;28;19919;-43
2022/05/28 02:38:47;;;;;;;;;;;;;;;;;;5095222;28;19914;-42
2022/05/28 02:41:15;;;;;;;;;;;;;;;;;;5095419;28;19914;-42
2022/05/28 02:43:40;;;;;;;;;;;;;;;;;;5095245;28;19908;-42
2022/05/28 02:46:05;;;;;;;;;;;;;;;;;;5094885;28;20391;-42
2022/05/28 02:48:31;;;;;;;;;;;;;;;;;;5095256;28;19908;-43
2022/05/28 02:50:57;;;;;;;;;;;;;;;;;;5095039;28;20358;-42
2022/05/28 02:53:25;;;;;;;;;;;;;;;;;;5095560;28;19915;-42
2022/05/28 02:55:50;;;;;;;;;;;;;;;;;;5094964;28;19912;-43
2022/05/28 02:58:16;;;;;;;;;;;;;;;;;;5095115;28;20008;-43
2022/05/28 03:00:43;;;;;;;;;;;;;;;;;;5095070;28;20045;-42
2022/05/28 03:03:10;;;;;;;;;;;;;;;;;;5095097;28;19957;-43
2022/05/28 03:05:37;;;;;;;;;;;;;;;;;;5095248;28;20312;-43
2022/05/28 03:08:05;;;;;;;;;;;;;;;;;;5095130;28;19969;-42
2022/05/28 03:10:30;;;;;;;;;;;;;;;;;;5095046;28;19916;-42
2022/05/28 03:12:56;;;;;;;;;;;;;;;;;;5096602;28;20283;-42
2022/05/28 03:15:24;;;;;;;;;;;;;;;;;;5098883;28;19917;-42
2022/05/28 03:17:49;;;;;;;;;;;;;;;;;;5097374;28;19908;-42
2022/05/28 03:20:14;;;;;;;;;;;;;;;;;;5098445;28;19908;-42
2022/05/28 03:22:40;;;;;;;;;;;;;;;;;;5098667;28;19919;-42
2022/05/28 03:25:05;;;;;;;;;;;;;;;;;;5098315;28;19912;-42
2022/05/28 03:27:31;;;;;;;;;;;;;;;;;;5098581;28;20335;-43
2022/05/28 03:29:56;;;;;;;;;;;;;;;;;;5098897;28;19959;-42
2022/05/28 03:32:23;;;;;;;;;;;;;;;;;;5098455;28;20274;-43
2022/05/28 03:34:51;;;;;;;;;;;;;;;;;;5098386;28;20371;-43
2022/05/28 03:37:16;;;;;;;;;;;;;;;;;;5098545;28;19908;-42
2022/05/28 03:39:42;;;;;;;;;;;;;;;;;;5098227;28;19918;-42
2022/05/28 03:42:07;;;;;;;;;;;;;;;;;;5098137;28;19959;-42
2022/05/28 03:44:36;;;;;;;;;;;;;;;;;;5098099;28;19930;-43
2022/05/28 03:47:01;;;;;;;;;;;;;;;;;;5098495;28;19908;-42
2022/05/28 03:49:27;;;;;;;;;;;;;;;;;;5098025;28;19915;-42
2022/05/28 03:51:52;;;;;;;;;;;;;;;;;;5098036;28;19912;-42
2022/05/28 03:54:17;;;;;;;;;;;;;;;;;;5098371;28;19909;-42
2022/05/28 03:56:45;;;;;;;;;;;;;;;;;;5098020;28;20252;-43
2022/05/28 03:59:10;;;;;;;;;;;;;;;;;;5098128;28;19954;-42
2022/05/28 04:01:35;;;;;;;;;;;;;;;;;;5097771;28;19908;-44
2022/05/28 04:04:02;;;;;;;;;;;;;;;;;;5098126;28;19919;-42
2022/05/28 04:06:30;;;;;;;;;;;;;;;;;;5098104;28;19915;-42
2022/05/28 04:08:56;;;;;;;;;;;;;;;;;;5097759;28;19908;-43
2022/05/28 04:11:25;;;;;;;;;;;;;;;;;;5097442;28;20374;-42
2022/05/28 04:13:53;;;;;;;;;;;;;;;;;;5097752;28;19911;-43
2022/05/28 04:16:18;;;;;;;;;;;;;;;;;;5097676;28;19912;-42
2022/05/28 04:18:44;;;;;;;;;;;;;;;;;;5097556;28;19904;-42
2022/05/28 04:21:09;;;;;;;;;;;;;;;;;;5097545;28;19962;-42
2022/05/28 04:23:34;;;;;;;;;;;;;;;;;;5096799;28;19961;-43
2022/05/28 04:26:00;;;;;;;;;;;;;;;;;;5097138;28;19912;-43
2022/05/28 04:28:26;;;;;;;;;;;;;;;;;;5096827;28;19920;-42
2022/05/28 04:30:54;;;;;;;;;;;;;;;;;;5096876;28;19916;-42
2022/05/28 04:33:20;;;;;;;;;;;;;;;;;;5096887;28;19908;-42
2022/05/28 04:35:45;;;;;;;;;;;;;;;;;;5096941;28;19914;-42
2022/05/28 04:38:10;;;;;;;;;;;;;;;;;;5096860;28;19914;-42
2022/05/28 04:40:35;;;;;;;;;;;;;;;;;;5096748;28;19914;-42
2022/05/28 04:43:03;;;;;;;;;;;;;;;;;;5096674;28;19912;-40
2022/05/28 04:45:28;;;;;;;;;;;;;;;;;;5096740;28;19961;-42
2022/05/28 04:47:54;;;;;;;;;;;;;;;;;;5096653;28;19908;-42
2022/05/28 04:50:19;;;;;;;;;;;;;;;;;;5096672;28;19991;-42
2022/05/28 04:52:46;;;;;;;;;;;;;;;;;;5096571;28;20015;-42
2022/05/28 04:55:11;;;;;;;;;;;;;;;;;;5094872;28;19945;-42
2022/05/28 04:57:39;;;;;;;;;;;;;;;;;;5096744;28;20275;-42
2022/05/28 05:00:06;;;;;;;;;;;;;;;;;;5096166;28;20048;-42
2022/05/28 05:02:31;;;;;;;;;;;;;;;;;;5096484;28;19961;-42
2022/05/28 05:04:56;;;;;;;;;;;;;;;;;;5096388;28;20360;-42
2022/05/28 05:07:24;;;;;;;;;;;;;;;;;;5096505;28;19991;-42
2022/05/28 05:09:50;;;;;;;;;;;;;;;;;;5096119;28;19908;-42
2022/05/28 05:12:15;;;;;;;;;;;;;;;;;;5095976;28;19918;-42
2022/05/28 05:14:40;;;;;;;;;;;;;;;;;;5095997;28;19912;-42
2022/05/28 05:17:05;;;;;;;;;;;;;;;;;;5096228;28;19908;-42
2022/05/28 05:19:31;;;;;;;;;;;;;;;;;;5096440;28;19908;-43
2022/05/28 05:21:56;;;;;;;;;;;;;;;;;;5096319;28;19908;-43
2022/05/28 05:24:24;;;;;;;;;;;;;;;;;;5096014;28;19912;-43
2022/05/28 05:26:49;;;;;;;;;;;;;;;;;;5096039;28;19912;-42
2022/05/28 05:29:14;;;;;;;;;;;;;;;;;;5095473;28;19927;-43
2022/05/28 05:31:40;;;;;;;;;;;;;;;;;;5095590;28;19923;-42
2022/05/28 05:34:05;;;;;;;;;;;;;;;;;;5095784;28;19908;-42
2022/05/28 05:36:35;;;;;;;;;;;;;;;;;;5095436;28;19915;-43
2022/05/28 05:39:00;;;;;;;;;;;;;;;;;;5096038;28;20271;-42
2022/05/28 05:41:26;;;;;;;;;;;;;;;;;;5095629;28;19908;-43
2022/05/28 05:43:51;;;;;;;;;;;;;;;;;;5095816;28;20375;-43
2022/05/28 05:46:18;;;;;;;;;;;;;;;;;;5095655;28;20436;-43
2022/05/28 05:48:46;;;;;;;;;;;;;;;;;;5095343;28;19961;-43
2022/05/28 05:51:11;;;;;;;;;;;;;;;;;;5095532;28;20374;-43
2022/05/28 05:53:36;;;;;;;;;;;;;;;;;;5095248;28;19931;-43
2022/05/28 05:56:04;;;;;;;;;;;;;;;;;;5095713;28;19958;-42
2022/05/28 05:58:30;;;;;;;;;;;;;;;;;;5095635;28;19912;-43
2022/05/28 06:00:55;;;;;;;;;;;;;;;;;;5095786;28;20375;-43
2022/05/28 06:03:23;;;;;;;;;;;;;;;;;;5096161;28;19939;-43
2022/05/28 06:05:50;;;;;;;;;;;;;;;;;;5095859;28;19915;-43
2022/05/28 06:08:15;;;;;;;;;;;;;;;;;;5095865;28;19998;-43
2022/05/28 06:10:41;;;;;;;;;;;;;;;;;;5096118;28;19943;-43
2022/05/28 06:13:06;;;;;;;;;;;;;;;;;;5095411;28;19955;-42
2022/05/28 06:15:34;;;;;;;;;;;;;;;;;;5095406;28;20349;-43
2022/05/28 06:18:00;;;;;;;;;;;;;;;;;;5095607;28;19957;-42
2022/05/28 06:20:30;;;;;;;;;;;;;;;;;;5095314;28;19909;-43
2022/05/28 06:22:55;;;;;;;;;;;;;;;;;;5093922;28;20010;-43
2022/05/28 06:25:20;;;;;;;;;;;;;;;;;;5094513;28;19955;-43
2022/05/28 06:27:46;;;;;;;;;;;;;;;;;;5094884;28;19959;-43
2022/05/28 06:30:11;;;;;;;;;;;;;;;;;;5095425;28;20007;-42
2022/05/28 06:32:39;;;;;;;;;;;;;;;;;;5095213;28;20355;-43
2022/05/28 06:35:04;;;;;;;;;;;;;;;;;;5095182;28;19940;-44
2022/05/28 06:37:29;;;;;;;;;;;;;;;;;;5094729;28;19966;-43
2022/05/28 06:39:54;;;;;;;;;;;;;;;;;;5094860;28;19958;-43
2022/05/28 06:42:20;;;;;;;;;;;;;;;;;;5094910;28;19974;-43
2022/05/28 06:44:49;;;;;;;;;;;;;;;;;;5094789;28;19915;-42
2022/05/28 06:47:15;;;;;;;;;;;;;;;;;;5095755;28;19908;-43
2022/05/28 06:49:40;;;;;;;;;;;;;;;;;;5099164;28;19916;-43
2022/05/28 06:52:05;;;;;;;;;;;;;;;;;;5099201;28;19912;-43
2022/05/28 06:54:31;;;;;;;;;;;;;;;;;;5098398;28;19919;-43
2022/05/28 06:56:56;;;;;;;;;;;;;;;;;;5098658;28;19942;-43
2022/05/28 06:59:23;;;;;;;;;;;;;;;;;;5098691;28;19908;-43
2022/05/28 07:01:50;;;;;;;;;;;;;;;;;;5098574;28;19962;-43
2022/05/28 07:04:19;;;;;;;;;;;;;;;;;;5098844;28;19977;-43
2022/05/28 07:06:45;;;;;;;;;;;;;;;;;;5098465;28;19940;-44
2022/05/28 07:09:12;;;;;;;;;;;;;;;;;;5098406;28;20012;-44
2022/05/28 07:11:40;;;;;;;;;;;;;;;;;;5098371;28;19916;-43
2022/05/28 07:14:05;;;;;;;;;;;;;;;;;;5098683;28;19908;-43
2022/05/28 07:16:34;;;;;;;;;;;;;;;;;;5098319;28;19908;-43
2022/05/28 07:18:59;;;;;;;;;;;;;;;;;;5098298;28;19912;-43
2022/05/28 07:21:24;;;;;;;;;;;;;;;;;;5098462;28;20416;-43
2022/05/28 07:23:50;;;;;;;;;;;;;;;;;;5097945;28;20266;-43
2022/05/28 07:26:15;;;;;;;;;;;;;;;;;;5098828;28;19908;-43
2022/05/28 07:28:41;;;;;;;;;;;;;;;;;;5098329;28;19924;-41
2022/05/28 07:31:09;;;;;;;;;;;;;;;;;;5098857;28;19919;-42
2022/05/28 07:33:35;;;;;;;;;;;;;;;;;;5099027;28;19943;-41
2022/05/28 07:36:00;;;;;;;;;;;;;;;;;;5098721;28;19915;-41
2022/05/28 07:38:27;;;;;;;;;;;;;;;;;;5098789;28;19908;-41
2022/05/28 07:40:55;;;;;;;;;;;;;;;;;;5098767;28;19908;-42
2022/05/28 07:43:21;;;;;;;;;;;;;;;;;;5098542;28;19958;-41
2022/05/28 07:45:47;;;;;;;;;;;;;;;;;;5098184;28;19920;-43
2022/05/28 07:48:14;;;;;;;;;;;;;;;;;;5098319;28;19908;-43
2022/05/28 07:50:40;;;;;;;;;;;;;;;;;;5098175;28;19927;-42
2022/05/28 07:53:08;;;;;;;;;;;;;;;;;;5097940;28;19998;-43
2022/05/28 07:55:33;;;;;;;;;;;;;;;;;;5097728;28;19912;-43
2022/05/28 07:57:58;;;;;;;;;;;;;;;;;;5098057;28;19912;-43
2022/05/28 08:00:23;;;;;;;;;;;;;;;;;;5097935;28;19939;-43
2022/05/28 08:02:49;;;;;;;;;;;;;;;;;;5097946;28;20275;-43
2022/05/28 08:05:14;;;;;;;;;;;;;;;;;;5097903;28;19958;-44
2022/05/28 08:07:39;;;;;;;;;;;;;;;;;;5097953;28;19934;-43
2022/05/28 08:10:04;;;;;;;;;;;;;;;;;;5097839;28;19908;-43
2022/05/28 08:12:30;;;;;;;;;;;;;;;;;;5097847;28;19912;-43
2022/05/28 08:14:55;;;;;;;;;;;;;;;;;;5097628;28;19908;-42
2022/05/28 08:17:21;;;;;;;;;;;;;;;;;;5097560;28;19919;-41
2022/05/28 08:19:49;;;;;;;;;;;;;;;;;;5097466;28;19908;-43
2022/05/28 08:24:58;;;;;;;;;;;;;;;;;;5097217;28;20378;-44
2022/05/28 08:27:23;;;;;;;;;;;;;;;;;;5097431;28;19908;-43
2022/05/28 08:29:50;;;;;;;;;;;;;;;;;;5097492;28;19924;-43
2022/05/28 08:32:18;;;;;;;;;;;;;;;;;;5097456;28;19927;-43
2022/05/28 08:34:44;;;;;;;;;;;;;;;;;;5097325;28;19908;-40
2022/05/28 08:37:11;;;;;;;;;;;;;;;;;;5097227;28;19912;-43
2022/05/28 08:39:37;;;;;;;;;;;;;;;;;;5097255;28;19915;-42
2022/05/28 08:42:03;;;;;;;;;;;;;;;;;;5097115;28;20383;-43
2022/05/28 08:44:29;;;;;;;;;;;;;;;;;;5097148;28;19912;-43
2022/05/28 08:46:54;;;;;;;;;;;;;;;;;;5097019;28;19904;-45
2022/05/28 08:49:19;;;;;;;;;;;;;;;;;;5096969;28;19953;-43
2022/05/28 08:51:44;;;;;;;;;;;;;;;;;;5096519;28;20308;-43
2022/05/28 08:54:09;;;;;;;;;;;;;;;;;;5096556;28;20006;-45
2022/05/28 08:56:36;;;;;;;;;;;;;;;;;;5096757;28;19908;-43
2022/05/28 08:59:01;;;;;;;;;;;;;;;;;;5096662;28;19908;-42
2022/05/28 09:01:26;;;;;;;;;;;;;;;;;;5096968;28;19920;-43
2022/05/28 09:03:54;;;;;;;;;;;;;;;;;;5096586;28;19904;-43
2022/05/28 09:06:19;;;;;;;;;;;;;;;;;;5096694;28;19912;-43
2022/05/28 09:08:44;;;;;;;;;;;;;;;;;;5096686;28;20385;-45
2022/05/28 09:11:09;;;;;;;;;;;;;;;;;;5095852;28;20267;-43
2022/05/28 09:13:37;;;;;;;;;;;;;;;;;;5096534;28;19931;-43
2022/05/28 09:16:04;;;;;;;;;;;;;;;;;;5096591;28;19908;-43
2022/05/28 09:18:29;;;;;;;;;;;;;;;;;;5096294;28;19919;-43
2022/05/28 09:20:54;;;;;;;;;;;;;;;;;;5096262;28;20263;-43
2022/05/28 09:23:20;;;;;;;;;;;;;;;;;;5096076;28;19916;-44
2022/05/28 09:25:46;;;;;;;;;;;;;;;;;;5096466;28;19908;-42
2022/05/28 09:28:14;;;;;;;;;;;;;;;;;;5096034;28;19927;-43
2022/05/28 09:30:39;;;;;;;;;;;;;;;;;;5095897;28;19912;-44
2022/05/28 09:33:07;;;;;;;;;;;;;;;;;;5095653;28;19919;-43
2022/05/28 09:35:32;;;;;;;;;;;;;;;;;;5096005;28;19981;-43
2022/05/28 09:38:00;;;;;;;;;;;;;;;;;;5095714;28;19912;-43
2022/05/28 09:40:26;;;;;;;;;;;;;;;;;;5095623;28;20359;-43
2022/05/28 09:42:53;;;;;;;;;;;;;;;;;;5095530;28;20019;-43
2022/05/28 09:45:18;;;;;;;;;;;;;;;;;;5096087;28;19908;-43
2022/05/28 09:47:43;;;;;;;;;;;;;;;;;;5095637;28;20366;-43
2022/05/28 09:50:10;;;;;;;;;;;;;;;;;;5095864;28;19908;-43
2022/05/28 09:54:16;;;;;;;;;;;;;;;;;;5095198;28;19912;-42
2022/05/28 09:55:27;;;;;;;;;;;;;;;;;;5095502;28;19951;-43
2022/05/28 09:57:53;;;;;;;;;;;;;;;;;;5095429;28;19909;-43
2022/05/28 10:00:18;;;;;;;;;;;;;;;;;;5095468;28;19977;-44
2022/05/28 10:04:28;;;;;;;;;;;;;;;;;;5095382;28;19912;-42
2022/05/28 10:05:32;;;;;;;;;;;;;;;;;;5095596;28;20429;-43
2022/05/28 10:07:57;;;;;;;;;;;;;;;;;;5095403;28;19951;-43
2022/05/28 10:10:23;;;;;;;;;;;;;;;;;;5095549;28;19908;-44
2022/05/28 10:12:48;;;;;;;;;;;;;;;;;;5095421;28;19916;-43
2022/05/28 10:15:13;;;;;;;;;;;;;;;;;;5095293;28;20002;-44
2022/05/28 10:17:39;;;;;;;;;;;;;;;;;;5095328;28;20006;-42
2022/05/28 10:20:04;;;;;;;;;;;;;;;;;;5095126;28;19908;-44
2022/05/28 10:22:29;;;;;;;;;;;;;;;;;;5096072;28;19955;-43
2022/05/28 10:24:57;;;;;;;;;;;;;;;;;;5099137;28;19973;-45
2022/05/28 10:27:22;;;;;;;;;;;;;;;;;;5099542;28;19912;-43
2022/05/28 10:29:48;;;;;;;;;;;;;;;;;;5099233;28;19973;-43
2022/05/28 10:32:13;;;;;;;;;;;;;;;;;;5099321;28;19957;-43
2022/05/28 10:34:38;;;;;;;;;;;;;;;;;;5099211;28;20290;-43
2022/05/28 10:37:03;;;;;;;;;;;;;;;;;;5099037;28;20452;-43
2022/05/28 10:39:28;;;;;;;;;;;;;;;;;;5099248;28;19908;-43
2022/05/28 10:41:53;;;;;;;;;;;;;;;;;;5099142;28;19915;-44
2022/05/28 10:44:21;;;;;;;;;;;;;;;;;;5098935;28;19919;-43
2022/05/28 10:46:46;;;;;;;;;;;;;;;;;;5098861;28;19999;-43
2022/05/28 10:49:13;;;;;;;;;;;;;;;;;;5098996;28;19951;-42
2022/05/28 10:51:41;;;;;;;;;;;;;;;;;;5098808;28;19912;-44
2022/05/28 10:54:08;;;;;;;;;;;;;;;;;;5098346;28;19958;-43
2022/05/28 10:56:34;;;;;;;;;;;;;;;;;;5099073;28;19965;-41
2022/05/28 10:59:01;;;;;;;;;;;;;;;;;;5099175;28;19912;-43
2022/05/28 11:01:26;;;;;;;;;;;;;;;;;;5099064;28;19908;-43
2022/05/28 11:03:53;;;;;;;;;;;;;;;;;;5098901;28;19909;-42
2022/05/28 11:06:21;;;;;;;;;;;;;;;;;;5099094;28;19908;-44
2022/05/28 11:08:47;;;;;;;;;;;;;;;;;;5098872;28;19995;-44
2022/05/28 11:11:13;;;;;;;;;;;;;;;;;;5098582;28;19933;-42
2022/05/28 11:13:38;;;;;;;;;;;;;;;;;;5098263;28;20379;-41
2022/05/28 11:16:04;;;;;;;;;;;;;;;;;;5098256;28;19999;-44
2022/05/28 11:18:32;;;;;;;;;;;;;;;;;;5098032;28;19915;-41
2022/05/28 11:20:58;;;;;;;;;;;;;;;;;;5098298;28;19993;-43
2022/05/28 11:23:23;;;;;;;;;;;;;;;;;;5098010;28;19914;-44
2022/05/28 11:25:51;;;;;;;;;;;;;;;;;;5098226;28;19912;-42
2022/05/28 11:28:20;;;;;;;;;;;;;;;;;;5098104;28;19927;-43
2022/05/28 11:30:45;;;;;;;;;;;;;;;;;;5098335;28;20355;-42
2022/05/28 11:33:10;;;;;;;;;;;;;;;;;;5079114;28;19913;-42
2022/05/28 11:35:38;;;;;;;;;;;;;;;;;;5077873;28;19908;-42
2022/05/28 11:38:03;;;;;;;;;;;;;;;;;;5077738;28;19909;-42
2022/05/28 11:40:28;;;;;;;;;;;;;;;;;;5078052;28;20438;-42
2022/05/28 11:42:53;;;;;;;;;;;;;;;;;;5077788;28;20374;-42
2022/05/28 11:45:19;;;;;;;;;;;;;;;;;;5077424;28;19908;-43
2022/05/28 11:47:47;;;;;;;;;;;;;;;;;;5077698;28;20294;-42
2022/05/28 11:52:56;;;;;;;;;;;;;;;;;;5086141;28;19922;-42
2022/05/28 11:55:21;;;;;;;;;;;;;;;;;;5097561;28;20355;-43
2022/05/28 11:57:50;;;;;;;;;;;;;;;;;;5097524;28;19912;-43
2022/05/28 12:00:19;;;;;;;;;;;;;;;;;;5097516;28;19908;-42
2022/05/28 12:02:44;;;;;;;;;;;;;;;;;;5097517;28;20355;-42
2022/05/28 12:05:12;;;;;;;;;;;;;;;;;;5097764;28;19966;-43
2022/05/28 12:07:39;;;;;;;;;;;;;;;;;;5097514;28;19908;-42
2022/05/28 12:10:04;;;;;;;;;;;;;;;;;;5097516;28;19912;-42
2022/05/28 12:12:31;;;;;;;;;;;;;;;;;;5097309;28;19959;-43
2022/05/28 12:14:58;;;;;;;;;;;;;;;;;;5097177;28;19908;-42
2022/05/28 12:17:23;;;;;;;;;;;;;;;;;;5097199;28;19908;-42
2022/05/28 12:19:51;;;;;;;;;;;;;;;;;;5097038;28;20338;-42
2022/05/28 12:22:16;;;;;;;;;;;;;;;;;;5096729;28;20011;-43
2022/05/28 12:24:45;;;;;;;;;;;;;;;;;;5096808;28;19947;-42
2022/05/28 12:27:13;;;;;;;;;;;;;;;;;;5096999;28;20405;-42
2022/05/28 12:29:43;;;;;;;;;;;;;;;;;;5097281;28;19935;-42
2022/05/28 12:32:11;;;;;;;;;;;;;;;;;;5097168;28;20328;-43
2022/05/28 12:34:37;;;;;;;;;;;;;;;;;;5096969;28;19908;-42
2022/05/28 12:37:02;;;;;;;;;;;;;;;;;;5097122;28;19908;-42
2022/05/28 12:39:27;;;;;;;;;;;;;;;;;;5096873;28;19984;-42
2022/05/28 12:41:52;;;;;;;;;;;;;;;;;;5097136;28;20011;-42
2022/05/28 12:44:17;;;;;;;;;;;;;;;;;;5096721;28;20006;-42
2022/05/28 12:46:43;;;;;;;;;;;;;;;;;;5095957;28;19999;-43
2022/05/28 12:49:11;;;;;;;;;;;;;;;;;;5096637;28;19932;-42
2022/05/28 12:51:36;;;;;;;;;;;;;;;;;;5096337;28;20286;-43
2022/05/28 12:54:01;;;;;;;;;;;;;;;;;;5096350;28;19912;-42
2022/05/28 12:56:26;;;;;;;;;;;;;;;;;;5096461;28;19908;-42
2022/05/28 12:58:52;;;;;;;;;;;;;;;;;;5096096;28;19904;-42
2022/05/28 13:01:18;;;;;;;;;;;;;;;;;;5096504;28;19908;-43
2022/05/28 13:03:43;;;;;;;;;;;;;;;;;;5096384;28;19954;-42
2022/05/28 13:06:08;;;;;;;;;;;;;;;;;;5096407;28;20355;-42
2022/05/28 13:08:36;;;;;;;;;;;;;;;;;;5096430;28;19908;-42
2022/05/28 13:11:01;;;;;;;;;;;;;;;;;;5096178;28;19908;-43
2022/05/28 13:13:29;;;;;;;;;;;;;;;;;;5096212;28;19919;-42
2022/05/28 13:15:55;;;;;;;;;;;;;;;;;;5096110;28;19943;-42
2022/05/28 13:18:20;;;;;;;;;;;;;;;;;;5096189;28;19916;-44
2022/05/28 13:20:48;;;;;;;;;;;;;;;;;;5096124;28;19908;-43
2022/05/28 13:23:13;;;;;;;;;;;;;;;;;;5095802;28;19912;-43
2022/05/28 13:25:41;;;;;;;;;;;;;;;;;;5096714;28;19915;-42
2022/05/28 13:28:08;;;;;;;;;;;;;;;;;;5099717;22;19932;-43
2022/05/28 13:30:33;;;;;;;;;;;;;;;;;;5075845;28;19912;-42
2022/05/28 13:32:58;;;;;;;;;;;;;;;;;;5075663;28;20244;-42
2022/05/28 13:35:28;;;;;;;;;;;;;;;;;;5074973;28;20297;-42
2022/05/28 13:37:53;;;;;;;;;;;;;;;;;;5075758;28;20026;-43
2022/05/28 13:40:18;;;;;;;;;;;;;;;;;;5075849;28;19923;-43
2022/05/28 13:42:45;;;;;;;;;;;;;;;;;;5075587;28;19962;-43
2022/05/28 13:45:11;;;;;;;;;;;;;;;;;;5075787;28;19914;-42
2022/05/28 13:47:36;;;;;;;;;;;;;;;;;;5075601;28;19916;-42
2022/05/28 13:50:01;;;;;;;;;;;;;;;;;;5075405;28;20290;-43
2022/05/28 13:52:27;;;;;;;;;;;;;;;;;;5083572;28;20320;-42
2022/05/28 13:54:52;;;;;;;;;;;;;;;;;;5095684;28;20355;-42
2022/05/28 13:57:18;;;;;;;;;;;;;;;;;;5095765;28;19997;-42
2022/05/28 13:59:46;;;;;;;;;;;;;;;;;;5095601;28;19908;-41
2022/05/28 14:02:11;;;;;;;;;;;;;;;;;;5095755;28;19908;-43
2022/05/28 14:04:36;;;;;;;;;;;;;;;;;;5095785;28;20337;-43
2022/05/28 14:07:02;;;;;;;;;;;;;;;;;;5095659;28;19914;-44
2022/05/28 14:09:28;;;;;;;;;;;;;;;;;;5095541;28;19908;-43
2022/05/28 14:11:55;;;;;;;;;;;;;;;;;;5085613;28;20367;-43
2022/05/28 14:14:21;;;;;;;;;;;;;;;;;;5075018;28;19909;-43
2022/05/28 14:16:48;;;;;;;;;;;;;;;;;;5074974;28;19915;-43
2022/05/28 14:19:14;;;;;;;;;;;;;;;;;;5075221;28;19955;-43
2022/05/28 14:21:42;;;;;;;;;;;;;;;;;;5074913;28;19991;-43
2022/05/28 14:24:07;;;;;;;;;;;;;;;;;;5075027;28;19920;-44
2022/05/28 14:26:36;;;;;;;;;;;;;;;;;;5074854;28;19908;-43
2022/05/28 14:29:01;;;;;;;;;;;;;;;;;;5074304;28;20291;-44
2022/05/28 14:31:26;;;;;;;;;;;;;;;;;;5074553;28;19908;-43
2022/05/28 14:33:54;;;;;;;;;;;;;;;;;;5074957;28;20271;-43
2022/05/28 14:36:19;;;;;;;;;;;;;;;;;;5074606;28;19913;-43
2022/05/28 14:38:47;;;;;;;;;;;;;;;;;;5074296;28;19915;-42
2022/05/28 14:41:13;;;;;;;;;;;;;;;;;;5074453;28;19999;-43
2022/05/28 14:43:41;;;;;;;;;;;;;;;;;;5074271;28;19995;-43
2022/05/28 14:46:08;;;;;;;;;;;;;;;;;;5074316;28;19919;-42
2022/05/28 14:48:33;;;;;;;;;;;;;;;;;;5074784;28;19909;-44
2022/05/28 14:50:58;;;;;;;;;;;;;;;;;;5074457;28;19919;-43
2022/05/28 14:53:27;;;;;;;;;;;;;;;;;;5074443;28;19973;-44
2022/05/28 14:55:55;;;;;;;;;;;;;;;;;;5074459;28;20007;-43
2022/05/28 14:58:21;;;;;;;;;;;;;;;;;;5074818;28;19913;-43
2022/05/28 15:00:46;;;;;;;;;;;;;;;;;;5074833;28;19909;-43
2022/05/28 15:03:14;;;;;;;;;;;;;;;;;;5074689;28;19915;-42
2022/05/28 15:05:39;;;;;;;;;;;;;;;;;;5073538;28;20405;-43
2022/05/28 15:08:07;;;;;;;;;;;;;;;;;;5074928;28;19909;-42
2022/05/28 15:10:35;;;;;;;;;;;;;;;;;;5078905;28;20317;-43
2022/05/28 15:13:00;;;;;;;;;;;;;;;;;;5078225;28;19916;-43
2022/05/28 15:15:26;;;;;;;;;;;;;;;;;;5078093;28;19996;-42
2022/05/28 15:17:51;;;;;;;;;;;;;;;;;;5078118;28;19958;-44
2022/05/28 15:20:16;;;;;;;;;;;;;;;;;;5077929;28;19955;-44
2022/05/28 15:22:44;;;;;;;;;;;;;;;;;;5077876;28;20378;-43
2022/05/28 15:25:10;;;;;;;;;;;;;;;;;;5077933;28;19938;-43
2022/05/28 15:27:38;;;;;;;;;;;;;;;;;;5078224;28;19908;-42
2022/05/28 15:30:04;;;;;;;;;;;;;;;;;;5078403;28;19920;-43
2022/05/28 15:32:31;;;;;;;;;;;;;;;;;;5078412;28;19931;-43
2022/05/28 15:34:57;;;;;;;;;;;;;;;;;;5078103;28;19909;-43
2022/05/28 15:40:06;;;;;;;;;;;;;;;;;;5077685;28;20382;-42
2022/05/28 15:42:31;;;;;;;;;;;;;;;;;;5077994;28;19908;-43
2022/05/28 15:44:57;;;;;;;;;;;;;;;;;;5077668;28;19909;-42
2022/05/28 15:47:22;;;;;;;;;;;;;;;;;;5077448;28;20007;-43
2022/05/28 15:49:47;;;;;;;;;;;;;;;;;;5077118;28;19958;-42
2022/05/28 15:52:15;;;;;;;;;;;;;;;;;;5077556;28;19951;-44
2022/05/28 15:54:40;;;;;;;;;;;;;;;;;;5077462;28;20034;-42
2022/05/28 15:57:05;;;;;;;;;;;;;;;;;;5077362;28;20318;-43
2022/05/28 15:59:31;;;;;;;;;;;;;;;;;;5077566;28;19947;-43
2022/05/28 16:01:56;;;;;;;;;;;;;;;;;;5077262;28;19951;-43
2022/05/28 16:04:25;;;;;;;;;;;;;;;;;;5076975;28;19919;-42
2022/05/28 16:06:52;;;;;;;;;;;;;;;;;;5077252;28;19909;-43
2022/05/28 16:09:20;;;;;;;;;;;;;;;;;;5077097;28;19909;-42
2022/05/28 16:11:45;;;;;;;;;;;;;;;;;;5077260;28;20379;-41
2022/05/28 16:14:13;;;;;;;;;;;;;;;;;;5061949;28;19920;-43
2022/05/28 16:16:40;;;;;;;;;;;;;;;;;;5057149;28;20276;-43
2022/05/28 16:19:05;;;;;;;;;;;;;;;;;;5056971;28;19915;-42
2022/05/28 16:21:34;;;;;;;;;;;;;;;;;;5056377;28;19960;-43
2022/05/28 16:23:59;;;;;;;;;;;;;;;;;;5071370;28;19916;-43
2022/05/28 16:26:26;;;;;;;;;;;;;;;;;;5076667;28;19919;-43
2022/05/28 16:28:54;;;;;;;;;;;;;;;;;;5076865;28;19920;-44
2022/05/28 16:31:20;;;;;;;;;;;;;;;;;;5077291;28;19919;-42
2022/05/28 16:33:46;;;;;;;;;;;;;;;;;;5076450;28;19913;-43
2022/05/28 16:36:14;;;;;;;;;;;;;;;;;;5076893;28;19908;-42
2022/05/28 16:38:40;;;;;;;;;;;;;;;;;;5076467;28;20007;-42
2022/05/28 16:41:08;;;;;;;;;;;;;;;;;;5076539;28;20413;-43
2022/05/28 16:43:33;;;;;;;;;;;;;;;;;;5069766;28;20240;-44
2022/05/28 16:45:58;;;;;;;;;;;;;;;;;;5056866;28;19917;-43